sensor_id;sensor_type;location;lat;lon;timestamp;temperature;humidity
44671;DHT22;48397;53.016;-2.260;2023-03-11T00:00:17;-0.20;99.90
44671;DHT22;48397;53.016;-2.260;2023-03-11T00:02:47;-0.30;99.90
44671;DHT22;48397;53.016;-2.260;2023-03-11T00:05:21;-0.30;99.90
44671;DHT22;48397;53.016;-2.260;2023-03-11T00:07:50;-0.20;99.90
44671;DHT22;48397;53.016;-2.260;2023-03-11T00:10:22;-0.20;99.90
44671;DHT22;48397;53.016;-2.260;2023-03-11T00:12:50;-0.20;99.90
44671;DHT22;48397;53.016;-2.260;2023-03-11T00:15:18;-0.20;99.90
44671;DHT22;48397;53.016;-2.260;2023-03-11T00:17:49;-0.20;99.90
44671;DHT22;48397;53.016;-2.260;2023-03-11T00:20:25;-0.30;99.90
44671;DHT22;48397;53.016;-2.260;2023-03-11T00:22:54;-0.30;99.90
44671;DHT22;48397;53.016;-2.260;2023-03-11T00:25:24;-0.30;99.90
44671;DHT22;48397;53.016;-2.260;2023-03-11T00:27:52;-0.30;99.90
44671;DHT22;48397;53.016;-2.260;2023-03-11T00:30:21;-0.40;99.90
44671;DHT22;48397;53.016;-2.260;2023-03-11T00:32:51;-0.40;99.90
44671;DHT22;48397;53.016;-2.260;2023-03-11T00:35:29;-0.40;99.90
44671;DHT22;48397;53.016;-2.260;2023-03-11T00:38:00;-0.40;99.90
44671;DHT22;48397;53.016;-2.260;2023-03-11T00:40:30;-0.40;99.90
44671;DHT22;48397;53.016;-2.260;2023-03-11T00:42:58;-0.50;99.90
44671;DHT22;48397;53.016;-2.260;2023-03-11T00:45:27;2.30;99.90
44671;DHT22;48397;53.016;-2.260;2023-03-11T00:50:30;-0.50;99.90
44671;DHT22;48397;53.016;-2.260;2023-03-11T00:52:59;-0.50;99.90
44671;DHT22;48397;53.016;-2.260;2023-03-11T00:55:29;-0.50;99.90
44671;DHT22;48397;53.016;-2.260;2023-03-11T00:58:02;-0.60;99.90
44671;DHT22;48397;53.016;-2.260;2023-03-11T01:00:52;-0.60;99.90
44671;DHT22;48397;53.016;-2.260;2023-03-11T01:03:21;-0.60;99.90
44671;DHT22;48397;53.016;-2.260;2023-03-11T01:08:18;-0.60;99.90
44671;DHT22;48397;53.016;-2.260;2023-03-11T01:10:46;-0.70;99.90
44671;DHT22;48397;53.016;-2.260;2023-03-11T01:13:14;-0.70;99.90
44671;DHT22;48397;53.016;-2.260;2023-03-11T01:15:42;-0.40;99.90
44671;DHT22;48397;53.016;-2.260;2023-03-11T01:18:10;0.70;99.90
44671;DHT22;48397;53.016;-2.260;2023-03-11T01:20:37;-0.70;99.90
44671;DHT22;48397;53.016;-2.260;2023-03-11T01:23:06;-0.90;99.90
44671;DHT22;48397;53.016;-2.260;2023-03-11T01:25:34;-0.90;99.90
44671;DHT22;48397;53.016;-2.260;2023-03-11T01:28:03;-1.00;99.90
44671;DHT22;48397;53.016;-2.260;2023-03-11T01:30:30;-1.00;99.90
44671;DHT22;48397;53.016;-2.260;2023-03-11T01:32:58;-1.00;99.90
44671;DHT22;48397;53.016;-2.260;2023-03-11T01:35:28;-1.10;99.90
44671;DHT22;48397;53.016;-2.260;2023-03-11T01:37:57;-0.50;99.90
44671;DHT22;48397;53.016;-2.260;2023-03-11T01:40:36;-1.20;99.90
44671;DHT22;48397;53.016;-2.260;2023-03-11T01:46:36;-1.30;99.90
44671;DHT22;48397;53.016;-2.260;2023-03-11T01:52:04;-1.50;99.90
44671;DHT22;48397;53.016;-2.260;2023-03-11T01:54:42;-1.60;99.90
44671;DHT22;48397;53.016;-2.260;2023-03-11T01:57:12;-1.60;99.90
44671;DHT22;48397;53.016;-2.260;2023-03-11T01:59:49;-1.60;99.90
44671;DHT22;48397;53.016;-2.260;2023-03-11T02:02:31;-1.70;99.90
44671;DHT22;48397;53.016;-2.260;2023-03-11T02:05:02;-1.80;99.90
44671;DHT22;48397;53.016;-2.260;2023-03-11T02:07:31;-1.90;99.90
44671;DHT22;48397;53.016;-2.260;2023-03-11T02:12:33;-2.00;99.90
44671;DHT22;48397;53.016;-2.260;2023-03-11T02:15:03;-2.00;99.90
44671;DHT22;48397;53.016;-2.260;2023-03-11T02:17:36;-2.10;99.90
44671;DHT22;48397;53.016;-2.260;2023-03-11T02:20:22;-2.10;99.90
44671;DHT22;48397;53.016;-2.260;2023-03-11T02:22:54;-2.10;99.90
44671;DHT22;48397;53.016;-2.260;2023-03-11T02:25:43;-2.10;99.90
44671;DHT22;48397;53.016;-2.260;2023-03-11T02:28:16;-2.10;99.90
44671;DHT22;48397;53.016;-2.260;2023-03-11T02:30:45;-2.10;99.90
44671;DHT22;48397;53.016;-2.260;2023-03-11T02:33:17;-2.10;99.90
44671;DHT22;48397;53.016;-2.260;2023-03-11T02:35:48;-2.00;99.90
44671;DHT22;48397;53.016;-2.260;2023-03-11T02:38:15;-2.00;99.90
44671;DHT22;48397;53.016;-2.260;2023-03-11T02:40:53;-1.90;99.90
44671;DHT22;48397;53.016;-2.260;2023-03-11T02:43:32;-1.80;99.90
44671;DHT22;48397;53.016;-2.260;2023-03-11T02:46:01;-1.80;99.90
44671;DHT22;48397;53.016;-2.260;2023-03-11T02:48:31;-1.70;99.90
44671;DHT22;48397;53.016;-2.260;2023-03-11T02:51:01;-1.60;99.90
44671;DHT22;48397;53.016;-2.260;2023-03-11T02:53:32;-1.60;99.90
44671;DHT22;48397;53.016;-2.260;2023-03-11T02:56:02;-1.60;99.90
44671;DHT22;48397;53.016;-2.260;2023-03-11T02:58:30;-1.50;99.90
44671;DHT22;48397;53.016;-2.260;2023-03-11T03:00:58;-1.50;99.90
44671;DHT22;48397;53.016;-2.260;2023-03-11T03:05:54;-1.50;99.90
44671;DHT22;48397;53.016;-2.260;2023-03-11T03:08:21;-1.40;99.90
44671;DHT22;48397;53.016;-2.260;2023-03-11T03:10:49;-1.40;99.90
44671;DHT22;48397;53.016;-2.260;2023-03-11T03:13:17;-1.40;99.90
44671;DHT22;48397;53.016;-2.260;2023-03-11T03:15:44;-1.40;99.90
44671;DHT22;48397;53.016;-2.260;2023-03-11T03:18:12;-1.40;99.90
44671;DHT22;48397;53.016;-2.260;2023-03-11T03:20:40;-1.40;99.90
44671;DHT22;48397;53.016;-2.260;2023-03-11T03:23:08;-1.40;99.90
44671;DHT22;48397;53.016;-2.260;2023-03-11T03:25:36;-1.50;99.90
44671;DHT22;48397;53.016;-2.260;2023-03-11T03:28:07;-1.60;99.90
44671;DHT22;48397;53.016;-2.260;2023-03-11T03:33:05;-1.60;99.90
44671;DHT22;48397;53.016;-2.260;2023-03-11T03:35:33;-1.60;99.90
44671;DHT22;48397;53.016;-2.260;2023-03-11T03:40:38;-1.70;99.90
44671;DHT22;48397;53.016;-2.260;2023-03-11T03:43:07;-1.60;99.90
44671;DHT22;48397;53.016;-2.260;2023-03-11T03:45:36;-1.60;99.90
44671;DHT22;48397;53.016;-2.260;2023-03-11T03:48:04;-1.60;99.90
44671;DHT22;48397;53.016;-2.260;2023-03-11T03:50:38;-1.60;99.90
44671;DHT22;48397;53.016;-2.260;2023-03-11T03:53:08;-1.60;99.90
44671;DHT22;48397;53.016;-2.260;2023-03-11T03:55:35;-1.60;99.90
44671;DHT22;48397;53.016;-2.260;2023-03-11T03:58:03;-1.50;99.90
44671;DHT22;48397;53.016;-2.260;2023-03-11T04:00:34;-1.50;99.90
44671;DHT22;48397;53.016;-2.260;2023-03-11T04:03:02;-1.50;99.90
44671;DHT22;48397;53.016;-2.260;2023-03-11T04:05:39;-1.40;99.90
44671;DHT22;48397;53.016;-2.260;2023-03-11T04:08:07;-1.40;99.90
44671;DHT22;48397;53.016;-2.260;2023-03-11T04:10:35;-1.40;99.90
44671;DHT22;48397;53.016;-2.260;2023-03-11T04:13:03;-1.30;99.90
44671;DHT22;48397;53.016;-2.260;2023-03-11T04:15:31;-1.30;99.90
44671;DHT22;48397;53.016;-2.260;2023-03-11T04:17:59;-1.30;99.90
44671;DHT22;48397;53.016;-2.260;2023-03-11T04:20:27;-1.30;99.90
44671;DHT22;48397;53.016;-2.260;2023-03-11T04:22:54;-1.30;99.90
44671;DHT22;48397;53.016;-2.260;2023-03-11T04:25:23;-1.00;99.90
44671;DHT22;48397;53.016;-2.260;2023-03-11T04:27:51;-1.30;99.90
44671;DHT22;48397;53.016;-2.260;2023-03-11T04:30:20;-1.30;99.90
44671;DHT22;48397;53.016;-2.260;2023-03-11T04:32:51;-4.50;99.90
44671;DHT22;48397;53.016;-2.260;2023-03-11T04:35:19;-1.30;99.90
44671;DHT22;48397;53.016;-2.260;2023-03-11T04:37:47;-1.30;99.90
44671;DHT22;48397;53.016;-2.260;2023-03-11T04:40:16;-1.40;99.90
44671;DHT22;48397;53.016;-2.260;2023-03-11T04:42:44;-1.40;99.90
44671;DHT22;48397;53.016;-2.260;2023-03-11T04:45:13;-1.40;99.90
44671;DHT22;48397;53.016;-2.260;2023-03-11T04:47:45;-1.40;99.90
44671;DHT22;48397;53.016;-2.260;2023-03-11T04:50:14;-1.40;99.90
44671;DHT22;48397;53.016;-2.260;2023-03-11T04:52:42;-1.40;99.90
44671;DHT22;48397;53.016;-2.260;2023-03-11T04:55:10;-1.40;99.90
44671;DHT22;48397;53.016;-2.260;2023-03-11T04:57:41;-0.60;99.90
44671;DHT22;48397;53.016;-2.260;2023-03-11T05:00:12;-1.30;99.90
44671;DHT22;48397;53.016;-2.260;2023-03-11T05:02:46;-1.40;99.90
44671;DHT22;48397;53.016;-2.260;2023-03-11T05:05:14;-1.40;99.90
44671;DHT22;48397;53.016;-2.260;2023-03-11T05:07:42;-1.40;99.90
44671;DHT22;48397;53.016;-2.260;2023-03-11T05:10:13;-1.40;99.90
44671;DHT22;48397;53.016;-2.260;2023-03-11T05:12:40;0.10;99.90
44671;DHT22;48397;53.016;-2.260;2023-03-11T05:15:08;-1.30;99.90
44671;DHT22;48397;53.016;-2.260;2023-03-11T05:17:36;-1.40;99.90
44671;DHT22;48397;53.016;-2.260;2023-03-11T05:20:05;-1.30;99.90
44671;DHT22;48397;53.016;-2.260;2023-03-11T05:22:34;-1.30;99.90
44671;DHT22;48397;53.016;-2.260;2023-03-11T05:25:03;-1.30;99.90
44671;DHT22;48397;53.016;-2.260;2023-03-11T05:27:31;-1.30;99.90
44671;DHT22;48397;53.016;-2.260;2023-03-11T05:29:59;-1.30;99.90
44671;DHT22;48397;53.016;-2.260;2023-03-11T05:32:30;-1.30;99.90
44671;DHT22;48397;53.016;-2.260;2023-03-11T05:34:58;-0.70;99.90
44671;DHT22;48397;53.016;-2.260;2023-03-11T05:37:27;-1.30;99.90
44671;DHT22;48397;53.016;-2.260;2023-03-11T05:39:55;-1.20;99.90
44671;DHT22;48397;53.016;-2.260;2023-03-11T05:42:23;-1.30;99.90
44671;DHT22;48397;53.016;-2.260;2023-03-11T05:44:53;-1.20;99.90
44671;DHT22;48397;53.016;-2.260;2023-03-11T05:47:23;-1.20;99.90
44671;DHT22;48397;53.016;-2.260;2023-03-11T05:49:51;-1.30;99.90
44671;DHT22;48397;53.016;-2.260;2023-03-11T05:52:19;-1.20;99.90
44671;DHT22;48397;53.016;-2.260;2023-03-11T05:54:49;-1.20;99.90
44671;DHT22;48397;53.016;-2.260;2023-03-11T05:57:21;-1.20;99.90
44671;DHT22;48397;53.016;-2.260;2023-03-11T05:59:49;-1.20;99.90
44671;DHT22;48397;53.016;-2.260;2023-03-11T06:02:16;0.30;99.90
44671;DHT22;48397;53.016;-2.260;2023-03-11T06:04:44;-1.10;99.90
44671;DHT22;48397;53.016;-2.260;2023-03-11T06:07:13;-1.10;99.90
44671;DHT22;48397;53.016;-2.260;2023-03-11T06:09:45;-1.10;99.90
44671;DHT22;48397;53.016;-2.260;2023-03-11T06:12:17;-1.10;99.90
44671;DHT22;48397;53.016;-2.260;2023-03-11T06:15:06;-1.10;99.90
44671;DHT22;48397;53.016;-2.260;2023-03-11T06:17:35;-1.10;99.90
44671;DHT22;48397;53.016;-2.260;2023-03-11T06:20:03;-1.10;99.90
44671;DHT22;48397;53.016;-2.260;2023-03-11T06:22:33;-1.10;99.90
44671;DHT22;48397;53.016;-2.260;2023-03-11T06:25:01;-0.30;99.90
44671;DHT22;48397;53.016;-2.260;2023-03-11T06:27:31;-1.10;99.90
44671;DHT22;48397;53.016;-2.260;2023-03-11T06:29:59;0.20;99.90
44671;DHT22;48397;53.016;-2.260;2023-03-11T06:32:27;-1.10;99.90
44671;DHT22;48397;53.016;-2.260;2023-03-11T06:34:56;-1.10;99.90
44671;DHT22;48397;53.016;-2.260;2023-03-11T06:37:24;-1.10;99.90
44671;DHT22;48397;53.016;-2.260;2023-03-11T06:39:52;-1.10;99.90
44671;DHT22;48397;53.016;-2.260;2023-03-11T06:42:22;-1.10;99.90
44671;DHT22;48397;53.016;-2.260;2023-03-11T06:44:56;-1.10;99.90
44671;DHT22;48397;53.016;-2.260;2023-03-11T06:47:25;-1.10;99.90
44671;DHT22;48397;53.016;-2.260;2023-03-11T06:49:52;-1.10;99.90
44671;DHT22;48397;53.016;-2.260;2023-03-11T06:52:20;-1.10;99.90
44671;DHT22;48397;53.016;-2.260;2023-03-11T06:54:48;-1.10;99.90
44671;DHT22;48397;53.016;-2.260;2023-03-11T06:57:17;-1.10;99.90
44671;DHT22;48397;53.016;-2.260;2023-03-11T06:59:46;-1.10;99.90
44671;DHT22;48397;53.016;-2.260;2023-03-11T07:02:16;0.40;99.90
44671;DHT22;48397;53.016;-2.260;2023-03-11T07:04:46;-0.40;99.90
44671;DHT22;48397;53.016;-2.260;2023-03-11T07:07:15;-1.00;99.90
44671;DHT22;48397;53.016;-2.260;2023-03-11T07:12:13;-1.10;99.90
44671;DHT22;48397;53.016;-2.260;2023-03-11T07:14:41;-1.10;99.90
44671;DHT22;48397;53.016;-2.260;2023-03-11T07:22:11;-1.00;99.90
44671;DHT22;48397;53.016;-2.260;2023-03-11T07:24:40;-1.00;99.90
44671;DHT22;48397;53.016;-2.260;2023-03-11T07:27:08;-0.90;99.90
44671;DHT22;48397;53.016;-2.260;2023-03-11T07:29:36;-0.70;99.90
44671;DHT22;48397;53.016;-2.260;2023-03-11T07:32:05;-0.80;99.90
44671;DHT22;48397;53.016;-2.260;2023-03-11T07:34:33;-0.70;99.90
44671;DHT22;48397;53.016;-2.260;2023-03-11T07:37:02;-0.60;99.90
44671;DHT22;48397;53.016;-2.260;2023-03-11T07:39:29;-0.50;99.90
44671;DHT22;48397;53.016;-2.260;2023-03-11T07:41:57;-0.40;99.90
44671;DHT22;48397;53.016;-2.260;2023-03-11T07:44:33;-0.40;99.90
44671;DHT22;48397;53.016;-2.260;2023-03-11T07:47:02;-0.40;99.90
44671;DHT22;48397;53.016;-2.260;2023-03-11T07:51:58;-0.30;99.90
44671;DHT22;48397;53.016;-2.260;2023-03-11T07:54:26;1.50;99.90
44671;DHT22;48397;53.016;-2.260;2023-03-11T07:56:54;-0.20;99.90
44671;DHT22;48397;53.016;-2.260;2023-03-11T07:59:22;1.10;99.90
44671;DHT22;48397;53.016;-2.260;2023-03-11T08:01:50;-0.10;99.90
44671;DHT22;48397;53.016;-2.260;2023-03-11T08:04:18;1.00;99.90
44671;DHT22;48397;53.016;-2.260;2023-03-11T08:06:46;0.00;99.90
44671;DHT22;48397;53.016;-2.260;2023-03-11T08:09:14;0.20;99.90
44671;DHT22;48397;53.016;-2.260;2023-03-11T08:11:42;0.30;99.90
44671;DHT22;48397;53.016;-2.260;2023-03-11T08:14:10;0.40;99.90
44671;DHT22;48397;53.016;-2.260;2023-03-11T08:16:39;0.60;99.90
44671;DHT22;48397;53.016;-2.260;2023-03-11T08:19:10;0.80;99.90
44671;DHT22;48397;53.016;-2.260;2023-03-11T08:21:38;1.00;99.90
44671;DHT22;48397;53.016;-2.260;2023-03-11T08:24:08;1.30;99.90
44671;DHT22;48397;53.016;-2.260;2023-03-11T08:26:37;1.40;99.90
44671;DHT22;48397;53.016;-2.260;2023-03-11T08:29:06;1.70;99.90
44671;DHT22;48397;53.016;-2.260;2023-03-11T08:31:34;1.80;99.90
44671;DHT22;48397;53.016;-2.260;2023-03-11T08:34:06;1.80;99.90
44671;DHT22;48397;53.016;-2.260;2023-03-11T08:36:34;2.10;99.90
44671;DHT22;48397;53.016;-2.260;2023-03-11T08:39:02;2.30;99.90
44671;DHT22;48397;53.016;-2.260;2023-03-11T08:41:31;2.30;99.90
44671;DHT22;48397;53.016;-2.260;2023-03-11T08:43:59;2.50;99.90
44671;DHT22;48397;53.016;-2.260;2023-03-11T08:46:29;4.20;99.90
44671;DHT22;48397;53.016;-2.260;2023-03-11T08:48:57;2.80;99.90
44671;DHT22;48397;53.016;-2.260;2023-03-11T08:51:29;2.90;99.90
44671;DHT22;48397;53.016;-2.260;2023-03-11T08:53:58;3.00;99.90
44671;DHT22;48397;53.016;-2.260;2023-03-11T08:56:27;3.00;99.90
44671;DHT22;48397;53.016;-2.260;2023-03-11T08:58:55;3.00;99.90
44671;DHT22;48397;53.016;-2.260;2023-03-11T09:01:23;3.10;99.90
44671;DHT22;48397;53.016;-2.260;2023-03-11T09:03:52;3.60;99.90
44671;DHT22;48397;53.016;-2.260;2023-03-11T09:06:20;3.30;99.90
44671;DHT22;48397;53.016;-2.260;2023-03-11T09:08:48;3.40;99.90
44671;DHT22;48397;53.016;-2.260;2023-03-11T09:11:17;5.10;99.90
44671;DHT22;48397;53.016;-2.260;2023-03-11T09:13:45;3.50;99.90
44671;DHT22;48397;53.016;-2.260;2023-03-11T09:16:19;3.60;99.90
44671;DHT22;48397;53.016;-2.260;2023-03-11T09:18:48;3.60;99.90
44671;DHT22;48397;53.016;-2.260;2023-03-11T09:21:16;3.70;99.90
44671;DHT22;48397;53.016;-2.260;2023-03-11T09:23:43;3.70;99.90
44671;DHT22;48397;53.016;-2.260;2023-03-11T09:26:12;3.90;99.90
44671;DHT22;48397;53.016;-2.260;2023-03-11T09:28:40;4.00;99.90
44671;DHT22;48397;53.016;-2.260;2023-03-11T09:31:08;4.30;99.90
44671;DHT22;48397;53.016;-2.260;2023-03-11T09:33:37;4.20;99.90
44671;DHT22;48397;53.016;-2.260;2023-03-11T09:36:06;4.20;99.90
44671;DHT22;48397;53.016;-2.260;2023-03-11T09:38:34;4.30;99.90
44671;DHT22;48397;53.016;-2.260;2023-03-11T09:41:09;4.30;99.90
44671;DHT22;48397;53.016;-2.260;2023-03-11T09:43:57;4.50;99.90
44671;DHT22;48397;53.016;-2.260;2023-03-11T09:52:48;4.90;99.90
44671;DHT22;48397;53.016;-2.260;2023-03-11T09:57:56;5.00;99.90
44671;DHT22;48397;53.016;-2.260;2023-03-11T10:00:24;5.00;99.90
44671;DHT22;48397;53.016;-2.260;2023-03-11T10:05:21;5.10;99.90
44671;DHT22;48397;53.016;-2.260;2023-03-11T10:08:23;5.20;99.90
44671;DHT22;48397;53.016;-2.260;2023-03-11T10:17:06;5.60;99.90
44671;DHT22;48397;53.016;-2.260;2023-03-11T10:19:45;5.60;99.90
44671;DHT22;48397;53.016;-2.260;2023-03-11T10:22:38;5.70;99.90
44671;DHT22;48397;53.016;-2.260;2023-03-11T10:25:17;5.80;99.90
44671;DHT22;48397;53.016;-2.260;2023-03-11T10:27:50;6.00;99.90
44671;DHT22;48397;53.016;-2.260;2023-03-11T10:36:32;6.00;99.90
44671;DHT22;48397;53.016;-2.260;2023-03-11T10:39:01;6.10;99.90
44671;DHT22;48397;53.016;-2.260;2023-03-11T10:41:48;6.20;99.90
44671;DHT22;48397;53.016;-2.260;2023-03-11T10:44:41;6.30;99.90
44671;DHT22;48397;53.016;-2.260;2023-03-11T10:47:20;6.40;99.90
44671;DHT22;48397;53.016;-2.260;2023-03-11T10:49:50;6.30;99.90
44671;DHT22;48397;53.016;-2.260;2023-03-11T10:52:19;6.50;99.90
44671;DHT22;48397;53.016;-2.260;2023-03-11T10:54:51;6.40;99.90
44671;DHT22;48397;53.016;-2.260;2023-03-11T10:57:33;6.30;99.90
44671;DHT22;48397;53.016;-2.260;2023-03-11T11:00:04;6.30;99.90
44671;DHT22;48397;53.016;-2.260;2023-03-11T11:02:52;6.20;99.90
44671;DHT22;48397;53.016;-2.260;2023-03-11T11:05:32;6.30;99.90
44671;DHT22;48397;53.016;-2.260;2023-03-11T11:10:34;6.40;99.90
44671;DHT22;48397;53.016;-2.260;2023-03-11T11:16:03;6.50;99.90
44671;DHT22;48397;53.016;-2.260;2023-03-11T11:18:42;6.60;99.90
44671;DHT22;48397;53.016;-2.260;2023-03-11T11:24:18;6.90;99.90
44671;DHT22;48397;53.016;-2.260;2023-03-11T11:27:17;6.90;99.90
44671;DHT22;48397;53.016;-2.260;2023-03-11T11:29:47;7.00;99.90
44671;DHT22;48397;53.016;-2.260;2023-03-11T11:32:28;7.00;99.90
44671;DHT22;48397;53.016;-2.260;2023-03-11T11:35:01;7.10;99.90
44671;DHT22;48397;53.016;-2.260;2023-03-11T11:37:32;7.10;99.90
44671;DHT22;48397;53.016;-2.260;2023-03-11T11:43:04;7.30;99.90
44671;DHT22;48397;53.016;-2.260;2023-03-11T11:45:54;7.40;99.90
44671;DHT22;48397;53.016;-2.260;2023-03-11T11:48:32;7.50;99.90
44671;DHT22;48397;53.016;-2.260;2023-03-11T11:51:09;7.70;99.90
44671;DHT22;48397;53.016;-2.260;2023-03-11T11:53:54;7.70;99.90
44671;DHT22;48397;53.016;-2.260;2023-03-11T11:56:25;7.80;99.90
44671;DHT22;48397;53.016;-2.260;2023-03-11T11:58:53;7.90;99.90
44671;DHT22;48397;53.016;-2.260;2023-03-11T12:04:29;8.00;99.90
44671;DHT22;48397;53.016;-2.260;2023-03-11T12:18:27;8.00;99.90
44671;DHT22;48397;53.016;-2.260;2023-03-11T12:20:57;8.00;99.90
44671;DHT22;48397;53.016;-2.260;2023-03-11T12:23:48;8.00;99.90
44671;DHT22;48397;53.016;-2.260;2023-03-11T12:26:23;8.00;99.90
44671;DHT22;48397;53.016;-2.260;2023-03-11T12:29:07;8.00;99.90
44671;DHT22;48397;53.016;-2.260;2023-03-11T12:31:38;8.00;99.90
44671;DHT22;48397;53.016;-2.260;2023-03-11T12:34:10;8.20;99.90
44671;DHT22;48397;53.016;-2.260;2023-03-11T12:36:41;8.30;99.90
44671;DHT22;48397;53.016;-2.260;2023-03-11T12:39:22;8.20;99.90
44671;DHT22;48397;53.016;-2.260;2023-03-11T12:44:38;8.20;99.90
44671;DHT22;48397;53.016;-2.260;2023-03-11T12:54:46;8.60;99.90
44671;DHT22;48397;53.016;-2.260;2023-03-11T13:15:57;8.40;99.90
44671;DHT22;48397;53.016;-2.260;2023-03-11T13:18:27;8.30;99.90
44671;DHT22;48397;53.016;-2.260;2023-03-11T13:20:58;8.20;99.90
44671;DHT22;48397;53.016;-2.260;2023-03-11T13:23:36;8.00;99.90
44671;DHT22;48397;53.016;-2.260;2023-03-11T13:26:39;7.90;99.90
44671;DHT22;48397;53.016;-2.260;2023-03-11T13:29:17;7.70;99.90
44671;DHT22;48397;53.016;-2.260;2023-03-11T13:31:54;7.60;99.90
44671;DHT22;48397;53.016;-2.260;2023-03-11T13:37:23;7.50;99.90
44671;DHT22;48397;53.016;-2.260;2023-03-11T13:42:50;7.30;99.90
44671;DHT22;48397;53.016;-2.260;2023-03-11T13:45:27;7.20;99.90
44671;DHT22;48397;53.016;-2.260;2023-03-11T13:47:59;7.20;99.90
44671;DHT22;48397;53.016;-2.260;2023-03-11T13:50:33;7.20;99.90
44671;DHT22;48397;53.016;-2.260;2023-03-11T13:53:05;7.20;99.90
44671;DHT22;48397;53.016;-2.260;2023-03-11T13:55:38;7.30;99.90
44671;DHT22;48397;53.016;-2.260;2023-03-11T13:58:19;7.30;99.90
44671;DHT22;48397;53.016;-2.260;2023-03-11T14:00:58;7.40;99.90
44671;DHT22;48397;53.016;-2.260;2023-03-11T14:03:35;7.50;99.90
44671;DHT22;48397;53.016;-2.260;2023-03-11T14:06:09;7.50;99.90
44671;DHT22;48397;53.016;-2.260;2023-03-11T14:08:39;7.50;99.90
44671;DHT22;48397;53.016;-2.260;2023-03-11T14:13:42;7.50;99.90
44671;DHT22;48397;53.016;-2.260;2023-03-11T14:16:22;7.40;99.90
44671;DHT22;48397;53.016;-2.260;2023-03-11T14:21:35;7.10;99.90
44671;DHT22;48397;53.016;-2.260;2023-03-11T14:24:03;7.10;99.90
44671;DHT22;48397;53.016;-2.260;2023-03-11T14:26:34;6.90;99.90
44671;DHT22;48397;53.016;-2.260;2023-03-11T14:29:08;6.70;99.90
44671;DHT22;48397;53.016;-2.260;2023-03-11T14:31:39;6.50;99.90
44671;DHT22;48397;53.016;-2.260;2023-03-11T14:34:14;6.30;99.90
44671;DHT22;48397;53.016;-2.260;2023-03-11T14:36:43;6.30;99.90
44671;DHT22;48397;53.016;-2.260;2023-03-11T14:39:33;6.20;99.90
44671;DHT22;48397;53.016;-2.260;2023-03-11T14:42:21;6.00;99.90
44671;DHT22;48397;53.016;-2.260;2023-03-11T14:47:42;5.90;99.90
44671;DHT22;48397;53.016;-2.260;2023-03-11T14:50:19;5.90;99.90
44671;DHT22;48397;53.016;-2.260;2023-03-11T14:52:51;5.80;99.90
44671;DHT22;48397;53.016;-2.260;2023-03-11T15:06:23;5.40;99.90
44671;DHT22;48397;53.016;-2.260;2023-03-11T15:09:02;5.30;99.90
44671;DHT22;48397;53.016;-2.260;2023-03-11T15:11:56;5.30;99.90
44671;DHT22;48397;53.016;-2.260;2023-03-11T15:14:27;5.30;99.90
44671;DHT22;48397;53.016;-2.260;2023-03-11T15:17:15;5.30;99.90
44671;DHT22;48397;53.016;-2.260;2023-03-11T15:20:01;5.20;99.90
44671;DHT22;48397;53.016;-2.260;2023-03-11T15:22:37;5.20;99.90
44671;DHT22;48397;53.016;-2.260;2023-03-11T15:25:18;5.30;99.90
44671;DHT22;48397;53.016;-2.260;2023-03-11T15:27:46;5.30;99.90
44671;DHT22;48397;53.016;-2.260;2023-03-11T15:32:45;5.20;99.90
44671;DHT22;48397;53.016;-2.260;2023-03-11T15:35:25;5.20;99.90
44671;DHT22;48397;53.016;-2.260;2023-03-11T15:40:50;5.20;99.90
44671;DHT22;48397;53.016;-2.260;2023-03-11T15:43:22;5.10;99.90
44671;DHT22;48397;53.016;-2.260;2023-03-11T15:45:51;5.10;99.90
44671;DHT22;48397;53.016;-2.260;2023-03-11T15:50:56;5.00;99.90
44671;DHT22;48397;53.016;-2.260;2023-03-11T15:53:26;4.90;99.90
44671;DHT22;48397;53.016;-2.260;2023-03-11T15:55:57;4.90;99.90
44671;DHT22;48397;53.016;-2.260;2023-03-11T15:58:35;4.80;99.90
44671;DHT22;48397;53.016;-2.260;2023-03-11T16:01:06;4.80;99.90
44671;DHT22;48397;53.016;-2.260;2023-03-11T16:03:34;4.70;99.90
44671;DHT22;48397;53.016;-2.260;2023-03-11T16:08:30;4.70;99.90
44671;DHT22;48397;53.016;-2.260;2023-03-11T16:10:57;4.60;99.90
44671;DHT22;48397;53.016;-2.260;2023-03-11T16:13:25;4.60;99.90
44671;DHT22;48397;53.016;-2.260;2023-03-11T16:15:53;4.60;99.90
44671;DHT22;48397;53.016;-2.260;2023-03-11T16:18:20;4.60;99.90
44671;DHT22;48397;53.016;-2.260;2023-03-11T16:20:50;4.60;99.90
44671;DHT22;48397;53.016;-2.260;2023-03-11T16:23:22;4.60;99.90
44671;DHT22;48397;53.016;-2.260;2023-03-11T16:25:53;4.60;99.90
44671;DHT22;48397;53.016;-2.260;2023-03-11T16:28:23;4.50;99.90
44671;DHT22;48397;53.016;-2.260;2023-03-11T16:30:51;4.50;99.90
44671;DHT22;48397;53.016;-2.260;2023-03-11T16:33:18;4.50;99.90
44671;DHT22;48397;53.016;-2.260;2023-03-11T16:35:46;4.50;99.90
44671;DHT22;48397;53.016;-2.260;2023-03-11T16:40:44;4.40;99.90
44671;DHT22;48397;53.016;-2.260;2023-03-11T16:43:12;4.30;99.90
44671;DHT22;48397;53.016;-2.260;2023-03-11T16:45:42;4.30;99.90
44671;DHT22;48397;53.016;-2.260;2023-03-11T16:48:10;4.30;99.90
44671;DHT22;48397;53.016;-2.260;2023-03-11T16:50:38;4.30;99.90
44671;DHT22;48397;53.016;-2.260;2023-03-11T16:53:05;4.30;99.90
44671;DHT22;48397;53.016;-2.260;2023-03-11T16:55:33;4.30;99.90
44671;DHT22;48397;53.016;-2.260;2023-03-11T16:58:00;4.20;99.90
44671;DHT22;48397;53.016;-2.260;2023-03-11T17:00:28;4.20;99.90
44671;DHT22;48397;53.016;-2.260;2023-03-11T17:05:24;4.10;99.90
44671;DHT22;48397;53.016;-2.260;2023-03-11T17:07:55;4.20;99.90
44671;DHT22;48397;53.016;-2.260;2023-03-11T17:10:27;4.10;99.90
44671;DHT22;48397;53.016;-2.260;2023-03-11T17:12:55;4.10;99.90
44671;DHT22;48397;53.016;-2.260;2023-03-11T17:15:23;4.10;99.90
44671;DHT22;48397;53.016;-2.260;2023-03-11T17:17:51;4.10;99.90
44671;DHT22;48397;53.016;-2.260;2023-03-11T17:20:20;4.10;99.90
44671;DHT22;48397;53.016;-2.260;2023-03-11T17:22:48;4.10;99.90
44671;DHT22;48397;53.016;-2.260;2023-03-11T17:25:16;4.00;99.90
44671;DHT22;48397;53.016;-2.260;2023-03-11T17:27:44;4.00;99.90
44671;DHT22;48397;53.016;-2.260;2023-03-11T17:30:13;4.00;99.90
44671;DHT22;48397;53.016;-2.260;2023-03-11T17:35:18;3.90;99.90
44671;DHT22;48397;53.016;-2.260;2023-03-11T17:37:46;3.90;99.90
44671;DHT22;48397;53.016;-2.260;2023-03-11T17:40:14;5.90;99.90
44671;DHT22;48397;53.016;-2.260;2023-03-11T17:42:43;3.80;99.90
44671;DHT22;48397;53.016;-2.260;2023-03-11T17:45:11;3.80;99.90
44671;DHT22;48397;53.016;-2.260;2023-03-11T17:52:35;3.80;99.90
44671;DHT22;48397;53.016;-2.260;2023-03-11T17:55:02;3.70;99.90
44671;DHT22;48397;53.016;-2.260;2023-03-11T17:57:30;3.70;99.90
44671;DHT22;48397;53.016;-2.260;2023-03-11T18:02:41;3.60;99.90
44671;DHT22;48397;53.016;-2.260;2023-03-11T18:05:09;3.50;99.90
44671;DHT22;48397;53.016;-2.260;2023-03-11T18:07:37;3.50;99.90
44671;DHT22;48397;53.016;-2.260;2023-03-11T18:10:09;3.50;99.90
44671;DHT22;48397;53.016;-2.260;2023-03-11T18:12:38;3.40;99.90
44671;DHT22;48397;53.016;-2.260;2023-03-11T18:15:06;3.40;99.90
44671;DHT22;48397;53.016;-2.260;2023-03-11T18:17:38;3.40;99.90
44671;DHT22;48397;53.016;-2.260;2023-03-11T18:22:35;3.30;99.90
44671;DHT22;48397;53.016;-2.260;2023-03-11T18:25:05;3.30;99.90
44671;DHT22;48397;53.016;-2.260;2023-03-11T18:27:38;3.30;99.90
44671;DHT22;48397;53.016;-2.260;2023-03-11T18:30:09;3.30;99.90
44671;DHT22;48397;53.016;-2.260;2023-03-11T18:32:37;3.30;99.90